Time;durP1;ratioP1;P1;durP2;ratioP2;P2;SDS_P1;SDS_P2;PMS_P1;PMS_P2;Temp;Humidity;BMP_temperature;BMP_pressure;BME280_temperature;BME280_humidity;BME280_pressure;Samples;Min_cycle;Max_cycle;Signal;HPM_P1;HPM_P2
2023/07/19 00:01:10;;;;;;;4.65;2.92;;;25.20;90.50;;;;;;4767881;29;20082;-80
2023/07/19 00:03:37;;;;;;;8.98;3.85;;;25.20;90.40;;;;;;4768960;29;20121;-80
2023/07/19 00:06:04;;;;;;;9.27;3.83;;;25.20;90.60;;;;;;4760689;30;20142;-80
2023/07/19 00:08:32;;;;;;;6.35;3.47;;;25.20;90.80;;;;;;4778462;29;20839;-80
2023/07/19 00:10:59;;;;;;;5.45;3.22;;;25.20;90.90;;;;;;4757016;29;20059;-80
2023/07/19 00:13:27;;;;;;;9.35;3.53;;;25.10;90.90;;;;;;4776813;29;20052;-80
2023/07/19 00:15:54;;;;;;;9.43;3.83;;;25.10;90.90;;;;;;4760677;29;20063;-80
2023/07/19 00:18:21;;;;;;;4.65;3.13;;;25.10;91.10;;;;;;4775476;29;21124;-80
2023/07/19 00:20:48;;;;;;;11.85;4.55;;;25.00;91.20;;;;;;4778335;29;20055;-80
2023/07/19 00:23:16;;;;;;;9.02;3.97;;;25.00;91.60;;;;;;4763763;29;20082;-80
2023/07/19 00:25:45;;;;;;;10.48;3.25;;;24.90;91.40;;;;;;4769639;29;20067;-80
2023/07/19 00:28:12;;;;;;;10.57;3.60;;;25.00;91.60;;;;;;4778648;29;20051;-80
2023/07/19 00:30:41;;;;;;;7.63;3.88;;;24.90;91.80;;;;;;4779818;29;20055;-80
2023/07/19 00:33:09;;;;;;;7.82;3.40;;;24.90;91.70;;;;;;4762232;29;20568;-80
2023/07/19 00:35:43;;;;;;;8.38;3.03;;;24.90;91.70;;;;;;4772421;29;20463;-80
2023/07/19 00:38:14;;;;;;;8.23;3.33;;;24.90;91.60;;;;;;4770588;30;20053;-80
2023/07/19 00:40:41;;;;;;;7.70;3.60;;;24.80;91.70;;;;;;4766037;30;20055;-80
2023/07/19 00:43:11;;;;;;;8.23;3.28;;;24.80;91.70;;;;;;4748193;29;20160;-80
2023/07/19 00:45:45;;;;;;;7.40;3.58;;;24.80;91.90;;;;;;4767768;30;20531;-80
2023/07/19 00:48:15;;;;;;;11.05;3.65;;;24.70;92.00;;;;;;4775004;29;20051;-80
2023/07/19 00:50:44;;;;;;;8.80;3.78;;;24.70;92.40;;;;;;4760201;29;20196;-80
2023/07/19 00:53:12;;;;;;;10.07;3.78;;;24.70;92.60;;;;;;4775482;29;20070;-80
2023/07/19 00:55:40;;;;;;;8.65;3.38;;;24.60;92.90;;;;;;4759203;30;20047;-80
2023/07/19 00:58:08;;;;;;;10.02;4.30;;;24.60;93.10;;;;;;4764578;29;21044;-80
2023/07/19 01:00:35;;;;;;;8.05;4.38;;;24.60;93.30;;;;;;4765582;29;20070;-80
2023/07/19 01:03:04;;;;;;;13.10;4.90;;;24.50;93.80;;;;;;4773521;29;20066;-80
2023/07/19 01:05:31;;;;;;;9.40;4.10;;;24.50;94.00;;;;;;4758766;29;22870;-80
2023/07/19 01:07:59;;;;;;;6.32;3.67;;;24.40;94.10;;;;;;4777459;29;20420;-80
2023/07/19 01:10:26;;;;;;;7.28;3.22;;;24.40;94.30;;;;;;4773584;29;20063;-80
2023/07/19 01:13:06;;;;;;;8.57;3.90;;;24.40;94.50;;;;;;4771721;29;20128;-80
2023/07/19 01:15:35;;;;;;;8.55;3.15;;;24.40;94.50;;;;;;4771444;29;20089;-80
2023/07/19 01:18:03;;;;;;;9.23;4.15;;;24.40;94.60;;;;;;4781075;29;20881;-80
2023/07/19 01:20:31;;;;;;;12.43;3.75;;;24.50;94.40;;;;;;4756729;29;20055;-80
2023/07/19 01:22:59;;;;;;;11.23;3.85;;;24.40;94.60;;;;;;4749152;29;20082;-80
2023/07/19 01:25:26;;;;;;;9.05;3.38;;;24.30;94.80;;;;;;4762711;30;20122;-80
2023/07/19 01:27:53;;;;;;;8.57;3.40;;;24.30;94.80;;;;;;4771420;29;20487;-80
2023/07/19 01:30:20;;;;;;;6.63;3.47;;;24.30;94.50;;;;;;4773478;29;20051;-80
2023/07/19 01:32:49;;;;;;;7.35;3.38;;;24.30;94.60;;;;;;4771578;29;20043;-80
2023/07/19 01:35:16;;;;;;;9.93;3.90;;;24.20;94.80;;;;;;4757868;29;20104;-80
2023/07/19 01:37:44;;;;;;;7.78;3.60;;;24.20;95.10;;;;;;4775332;29;20063;-80
2023/07/19 01:40:11;;;;;;;9.50;3.50;;;24.20;95.50;;;;;;4774844;29;20843;-79
2023/07/19 01:42:39;;;;;;;8.82;3.47;;;24.10;95.80;;;;;;4770039;29;20065;-82
2023/07/19 01:45:07;;;;;;;9.95;3.97;;;24.10;96.00;;;;;;4779799;29;20066;-82
2023/07/19 01:47:34;;;;;;;8.88;3.85;;;24.00;96.30;;;;;;4770246;30;20050;-81
2023/07/19 01:50:03;;;;;;;8.75;3.72;;;24.00;96.40;;;;;;4754090;30;20501;-81
2023/07/19 01:52:30;;;;;;;6.57;3.42;;;24.00;96.60;;;;;;4772703;29;20051;-81
2023/07/19 01:54:57;;;;;;;12.55;4.03;;;24.00;96.70;;;;;;4757558;29;20051;-82
2023/07/19 01:57:24;;;;;;;9.82;3.58;;;24.00;96.70;;;;;;4763410;29;20079;-81
2023/07/19 01:59:52;;;;;;;9.55;3.80;;;24.00;96.80;;;;;;4764415;30;20126;-81
2023/07/19 02:02:20;;;;;;;11.38;5.20;;;24.00;96.90;;;;;;4773763;29;20146;-81
2023/07/19 02:04:48;;;;;;;7.05;3.92;;;23.90;96.80;;;;;;4758440;29;20099;-81
2023/07/19 02:07:15;;;;;;;8.48;4.15;;;23.80;97.10;;;;;;4759729;30;20043;-81
2023/07/19 02:09:43;;;;;;;10.30;4.10;;;23.80;97.10;;;;;;4766259;29;20056;-82
2023/07/19 02:12:10;;;;;;;8.68;4.22;;;23.90;97.10;;;;;;4758392;29;20051;-81
2023/07/19 02:14:38;;;;;;;8.43;4.43;;;23.80;97.20;;;;;;4766197;29;21250;-81
2023/07/19 02:17:05;;;;;;;6.45;4.15;;;23.80;97.20;;;;;;4756418;29;20082;-81
2023/07/19 02:19:32;;;;;;;6.28;3.83;;;23.80;97.40;;;;;;4760679;29;20137;-81
2023/07/19 02:21:59;;;;;;;10.45;4.70;;;23.70;97.60;;;;;;4766278;29;20055;-80
2023/07/19 02:24:27;;;;;;;9.23;3.90;;;23.70;97.60;;;;;;4762916;29;20051;-80
2023/07/19 02:26:54;;;;;;;10.90;4.60;;;23.70;97.70;;;;;;4749255;29;23198;-80
2023/07/19 02:29:21;;;;;;;11.52;4.65;;;23.60;97.80;;;;;;4754451;29;20071;-80
2023/07/19 02:31:51;;;;;;;8.13;4.65;;;23.60;98.00;;;;;;4775954;29;20051;-80
2023/07/19 02:34:21;;;;;;;13.00;4.50;;;23.50;98.40;;;;;;4760128;30;20048;-80
2023/07/19 02:36:49;;;;;;;11.65;4.22;;;23.60;98.30;;;;;;4771933;29;20074;-80
2023/07/19 02:39:20;;;;;;;9.75;4.07;;;23.60;98.20;;;;;;4768513;30;20051;-80
2023/07/19 02:41:47;;;;;;;10.27;4.20;;;23.50;98.40;;;;;;4775117;29;20139;-80
2023/07/19 02:44:14;;;;;;;8.98;4.32;;;23.50;98.50;;;;;;4751625;30;20082;-80
2023/07/19 02:46:41;;;;;;;11.50;4.32;;;23.50;98.40;;;;;;4771896;30;20063;-80
2023/07/19 02:49:10;;;;;;;8.43;4.13;;;23.50;98.40;;;;;;4774702;29;20047;-81
2023/07/19 02:51:38;;;;;;;7.30;4.45;;;23.50;98.20;;;;;;4769346;29;20063;-80
2023/07/19 02:54:05;;;;;;;9.23;4.03;;;23.40;97.80;;;;;;4780221;29;20036;-80
2023/07/19 02:56:32;;;;;;;8.98;4.38;;;23.40;97.70;;;;;;4764523;29;20063;-80
2023/07/19 02:59:00;;;;;;;11.32;5.45;;;23.40;97.70;;;;;;4765080;29;20112;-80
2023/07/19 03:01:27;;;;;;;8.60;5.00;;;23.40;97.30;;;;;;4776907;29;20104;-80
2023/07/19 03:03:54;;;;;;;8.55;3.92;;;23.40;97.20;;;;;;4778643;29;20436;-80
2023/07/19 03:06:22;;;;;;;9.23;4.88;;;23.40;97.00;;;;;;4769586;29;20595;-80
2023/07/19 03:08:50;;;;;;;7.78;4.20;;;23.40;97.00;;;;;;4760288;30;20051;-80
2023/07/19 03:11:18;;;;;;;6.60;3.95;;;23.40;97.00;;;;;;4779074;29;20051;-80
2023/07/19 03:13:46;;;;;;;9.27;3.83;;;23.30;96.80;;;;;;4778119;29;20057;-80
2023/07/19 03:16:14;;;;;;;10.73;5.32;;;23.30;97.00;;;;;;4771521;29;20450;-80
2023/07/19 03:18:41;;;;;;;7.13;3.72;;;23.30;97.20;;;;;;4777883;29;20059;-79
2023/07/19 03:21:08;;;;;;;8.65;3.80;;;23.20;97.40;;;;;;4768672;30;20411;-80
2023/07/19 03:23:35;;;;;;;7.25;3.63;;;23.30;97.40;;;;;;4777870;29;20059;-81
2023/07/19 03:26:03;;;;;;;7.38;3.92;;;23.30;97.60;;;;;;4763381;29;20067;-81
2023/07/19 03:28:31;;;;;;;6.53;2.90;;;23.30;97.50;;;;;;4764174;29;20210;-81
2023/07/19 03:30:58;;;;;;;8.57;3.30;;;23.30;97.20;;;;;;4768293;30;20067;-81
2023/07/19 03:33:26;;;;;;;6.82;3.53;;;23.30;97.20;;;;;;4776758;29;20051;-80
2023/07/19 03:35:54;;;;;;;9.00;4.70;;;23.30;97.40;;;;;;4771672;29;20040;-81
2023/07/19 03:38:21;;;;;;;7.95;2.95;;;23.30;97.30;;;;;;4764476;30;20075;-81
2023/07/19 03:40:52;;;;;;;7.63;4.15;;;23.20;97.20;;;;;;4762576;29;20047;-81
2023/07/19 03:43:20;;;;;;;10.32;3.55;;;23.30;97.50;;;;;;4777773;29;20071;-80
2023/07/19 03:45:47;;;;;;;6.70;3.50;;;23.30;97.40;;;;;;4764081;29;20511;-80
2023/07/19 03:48:14;;;;;;;8.13;3.25;;;23.40;97.20;;;;;;4773899;29;20056;-81
2023/07/19 03:50:41;;;;;;;7.72;3.67;;;23.40;97.30;;;;;;4762908;29;20170;-81
2023/07/19 03:53:09;;;;;;;7.30;2.75;;;23.30;97.10;;;;;;4778709;29;20058;-81
2023/07/19 03:55:38;;;;;;;7.05;3.15;;;23.30;97.10;;;;;;4746972;29;20059;-81
2023/07/19 03:58:06;;;;;;;5.68;2.83;;;23.30;97.20;;;;;;4764764;29;20397;-81
2023/07/19 04:00:34;;;;;;;8.20;3.20;;;23.30;97.00;;;;;;4771442;29;20059;-81
2023/07/19 04:03:01;;;;;;;6.03;2.35;;;23.20;97.40;;;;;;4776681;29;20078;-81
2023/07/19 04:05:29;;;;;;;8.75;3.83;;;23.30;97.50;;;;;;4760111;29;20052;-81
2023/07/19 04:08:01;;;;;;;7.25;2.78;;;23.30;97.60;;;;;;4765317;29;22844;-81
2023/07/19 04:10:29;;;;;;;6.97;2.95;;;23.40;97.50;;;;;;4758664;29;20182;-81
2023/07/19 04:12:57;;;;;;;10.10;3.47;;;23.40;96.70;;;;;;4765867;30;20073;-81
2023/07/19 04:15:25;;;;;;;9.45;3.35;;;23.40;96.50;;;;;;4764238;29;20465;-81
2023/07/19 04:17:52;;;;;;;9.10;3.45;;;23.40;96.90;;;;;;4773641;29;20051;-81
2023/07/19 04:20:22;;;;;;;4.38;2.55;;;23.50;96.40;;;;;;4764753;29;20059;-81
2023/07/19 04:22:50;;;;;;;7.55;3.42;;;23.60;96.20;;;;;;4777653;29;20052;-81
2023/07/19 04:25:20;;;;;;;7.65;2.78;;;23.60;96.10;;;;;;4774348;29;20051;-81
2023/07/19 04:27:48;;;;;;;8.30;3.60;;;23.70;96.20;;;;;;4777813;29;20056;-81
2023/07/19 04:30:16;;;;;;;8.23;3.85;;;23.60;96.00;;;;;;4774956;29;20111;-81
2023/07/19 04:32:43;;;;;;;8.68;3.22;;;23.60;96.30;;;;;;4767703;29;20077;-81
2023/07/19 04:35:10;;;;;;;5.88;3.58;;;23.60;96.10;;;;;;4774382;29;20051;-80
2023/07/19 04:37:38;;;;;;;7.15;3.13;;;23.60;96.10;;;;;;4777197;29;20140;-81
2023/07/19 04:40:08;;;;;;;8.00;3.22;;;23.60;96.70;;;;;;4777701;30;20081;-81
2023/07/19 04:42:38;;;;;;;8.65;2.83;;;23.80;96.70;;;;;;4762778;29;20051;-80
2023/07/19 04:45:05;;;;;;;5.78;3.03;;;23.70;96.40;;;;;;4776842;29;20070;-80
2023/07/19 04:47:36;;;;;;;9.38;3.42;;;23.80;96.40;;;;;;4772932;29;20146;-80
2023/07/19 04:50:08;;;;;;;7.80;3.33;;;23.90;96.10;;;;;;4776245;29;20105;-80
2023/07/19 04:52:38;;;;;;;6.95;3.35;;;23.90;96.20;;;;;;4764913;29;20143;-80
2023/07/19 04:55:05;;;;;;;6.53;3.10;;;24.00;96.40;;;;;;4760543;29;22819;-79
2023/07/19 04:57:34;;;;;;;8.75;3.15;;;24.20;95.90;;;;;;4769162;29;20051;-79
2023/07/19 05:00:04;;;;;;;10.60;4.10;;;24.20;95.80;;;;;;4767367;29;20048;-81
2023/07/19 05:02:32;;;;;;;7.75;4.00;;;24.20;95.40;;;;;;4767322;29;20054;-80
2023/07/19 05:04:59;;;;;;;10.93;4.05;;;24.20;94.60;;;;;;4757994;29;20086;-79
2023/07/19 05:07:26;;;;;;;11.85;4.35;;;24.20;94.30;;;;;;4760271;29;20058;-79
2023/07/19 05:09:54;;;;;;;8.70;3.97;;;24.40;93.80;;;;;;4767343;29;20058;-79
2023/07/19 05:12:21;;;;;;;8.05;4.28;;;24.60;93.60;;;;;;4769751;29;20050;-79
2023/07/19 05:14:48;;;;;;;8.05;3.55;;;24.60;93.60;;;;;;4773946;29;20147;-79
2023/07/19 05:17:15;;;;;;;8.25;4.05;;;24.70;93.30;;;;;;4762232;29;20054;-81
2023/07/19 05:19:42;;;;;;;11.32;4.43;;;24.80;92.80;;;;;;4766124;29;20054;-79
2023/07/19 05:22:11;;;;;;;7.82;3.70;;;25.00;93.20;;;;;;4777599;29;20058;-79
2023/07/19 05:24:39;;;;;;;9.23;4.57;;;25.00;92.20;;;;;;4767474;30;20094;-79
2023/07/19 05:27:06;;;;;;;6.93;3.70;;;25.20;91.80;;;;;;4761192;29;20078;-79
2023/07/19 05:29:34;;;;;;;8.95;3.92;;;25.30;91.60;;;;;;4777156;29;20098;-79
2023/07/19 05:32:01;;;;;;;6.25;3.67;;;25.60;91.10;;;;;;4749148;29;20075;-79
2023/07/19 05:34:28;;;;;;;7.65;3.90;;;25.70;90.90;;;;;;4767327;29;20054;-79
2023/07/19 05:36:55;;;;;;;11.30;3.50;;;25.70;90.60;;;;;;4760895;29;20131;-79
2023/07/19 05:39:22;;;;;;;7.45;3.95;;;25.70;89.70;;;;;;4773592;29;20055;-79
2023/07/19 05:41:49;;;;;;;5.63;3.30;;;25.90;89.40;;;;;;4766711;29;20062;-79
2023/07/19 05:44:17;;;;;;;7.72;3.55;;;26.20;88.50;;;;;;4762882;29;20058;-78
2023/07/19 05:46:45;;;;;;;11.93;3.20;;;26.30;87.00;;;;;;4759980;29;20498;-79
2023/07/19 05:49:12;;;;;;;7.85;3.40;;;26.50;86.70;;;;;;4773975;29;20517;-79
2023/07/19 05:51:39;;;;;;;8.48;3.00;;;26.60;86.20;;;;;;4770741;29;20059;-79
2023/07/19 05:54:07;;;;;;;8.07;3.47;;;26.70;85.50;;;;;;4761999;29;20134;-78
2023/07/19 05:56:35;;;;;;;7.43;2.90;;;26.70;84.70;;;;;;4761069;29;20063;-78
2023/07/19 05:59:03;;;;;;;5.13;2.80;;;26.50;85.00;;;;;;4774571;29;20052;-79
2023/07/19 06:01:30;;;;;;;7.78;2.67;;;26.30;86.10;;;;;;4759635;29;20063;-79
2023/07/19 06:04:01;;;;;;;6.47;2.88;;;26.20;87.10;;;;;;4757087;29;20059;-79
2023/07/19 06:06:28;;;;;;;6.00;2.60;;;26.40;86.90;;;;;;4768189;29;20066;-79
2023/07/19 06:08:55;;;;;;;7.60;3.42;;;26.70;86.30;;;;;;4776671;29;20051;-79
2023/07/19 06:11:22;;;;;;;3.83;2.65;;;26.80;84.70;;;;;;4769620;29;20055;-78
2023/07/19 06:13:50;;;;;;;4.15;2.83;;;27.00;83.90;;;;;;4764311;30;20531;-78
2023/07/19 06:16:17;;;;;;;6.93;2.70;;;27.10;84.00;;;;;;4752355;29;20059;-79
2023/07/19 06:18:44;;;;;;;7.72;2.67;;;27.10;83.40;;;;;;4769767;30;20304;-79
2023/07/19 06:21:11;;;;;;;8.18;2.80;;;27.20;83.30;;;;;;4767350;30;20043;-79
2023/07/19 06:23:39;;;;;;;6.78;3.15;;;27.20;82.70;;;;;;4769611;29;20064;-78
2023/07/19 06:26:06;;;;;;;5.85;2.83;;;27.40;82.40;;;;;;4762946;30;20066;-78
2023/07/19 06:28:35;;;;;;;6.95;2.90;;;27.50;81.90;;;;;;4773245;29;20047;-79
2023/07/19 06:31:02;;;;;;;5.68;3.00;;;27.50;80.80;;;;;;4761131;30;20055;-79
2023/07/19 06:33:30;;;;;;;7.68;3.28;;;27.80;80.70;;;;;;4766123;30;20142;-79
2023/07/19 06:35:58;;;;;;;5.47;2.72;;;27.60;80.60;;;;;;4773519;29;22986;-78
2023/07/19 06:38:26;;;;;;;6.55;2.33;;;27.40;80.20;;;;;;4759715;29;20077;-79
2023/07/19 06:40:53;;;;;;;5.90;3.25;;;27.10;81.20;;;;;;4744313;29;20086;-78
2023/07/19 06:43:20;;;;;;;6.25;2.28;;;27.30;83.40;;;;;;4763839;29;20096;-78
2023/07/19 06:45:47;;;;;;;4.45;2.63;;;27.60;81.80;;;;;;4761908;29;20141;-78
2023/07/19 06:48:15;;;;;;;6.88;2.78;;;27.90;80.70;;;;;;4759194;29;20068;-78
2023/07/19 06:50:42;;;;;;;6.03;2.90;;;28.10;80.30;;;;;;4775670;29;20059;-79
2023/07/19 06:53:12;;;;;;;6.53;3.00;;;27.70;79.70;;;;;;4764464;30;20055;-78
2023/07/19 06:55:42;;;;;;;;;;;27.30;80.60;;;;;;4774866;29;20509;-78
2023/07/19 06:58:13;;;;;;;7.13;3.07;;;27.10;81.10;;;;;;4777708;29;19936;-78
2023/07/19 07:00:41;;;;;;;10.15;3.95;;;27.20;81.90;;;;;;4776042;29;20814;-78
2023/07/19 07:03:08;;;;;;;7.13;3.67;;;27.00;81.60;;;;;;4755749;29;20087;-79
2023/07/19 07:05:36;;;;;;;7.43;3.22;;;27.10;82.20;;;;;;4771471;29;20047;-79
2023/07/19 07:08:03;;;;;;;6.85;3.33;;;27.20;82.40;;;;;;4774353;29;20059;-79
2023/07/19 07:10:30;;;;;;;11.85;3.13;;;27.30;81.90;;;;;;4759147;29;21171;-78
2023/07/19 07:12:57;;;;;;;8.18;3.22;;;27.50;81.10;;;;;;4776163;29;20142;-79
2023/07/19 07:15:25;;;;;;;7.15;3.00;;;27.70;80.90;;;;;;4762467;30;20048;-79
2023/07/19 07:17:52;;;;;;;4.88;2.80;;;27.70;80.50;;;;;;4773601;29;20048;-79
2023/07/19 07:20:19;;;;;;;6.38;2.47;;;27.70;81.20;;;;;;4777357;29;20050;-79
2023/07/19 07:22:47;;;;;;;8.52;3.72;;;27.80;82.40;;;;;;4770295;29;20062;-79
2023/07/19 07:25:14;;;;;;;6.80;3.88;;;28.10;81.10;;;;;;4762098;29;20070;-79
2023/07/19 07:27:41;;;;;;;7.63;3.13;;;28.20;79.10;;;;;;4760272;29;20088;-79
2023/07/19 07:30:09;;;;;;;9.35;3.13;;;28.40;78.90;;;;;;4758591;29;20046;-79
2023/07/19 07:32:37;;;;;;;6.95;3.20;;;28.70;78.90;;;;;;4775958;29;20059;-79
2023/07/19 07:35:07;;;;;;;8.55;4.53;;;28.90;80.10;;;;;;4765304;30;20043;-80
2023/07/19 07:37:36;;;;;;;8.43;3.03;;;28.90;78.70;;;;;;4764559;29;20520;-79
2023/07/19 07:40:03;;;;;;;8.45;3.00;;;28.50;78.10;;;;;;4765673;29;20057;-79
2023/07/19 07:42:31;;;;;;;5.25;2.75;;;28.30;79.40;;;;;;4770066;30;20055;-79
2023/07/19 07:44:59;;;;;;;6.18;2.80;;;28.20;80.30;;;;;;4762596;29;20039;-81
2023/07/19 07:47:26;;;;;;;6.97;2.90;;;28.20;80.70;;;;;;4760372;30;20109;-79
2023/07/19 07:49:55;;;;;;;9.38;3.50;;;28.20;79.70;;;;;;4765314;29;20043;-79
2023/07/19 07:52:23;;;;;;;7.90;3.65;;;28.20;80.30;;;;;;4777483;29;20121;-79
2023/07/19 07:54:50;;;;;;;10.32;3.33;;;28.30;80.20;;;;;;4779597;29;20055;-79
2023/07/19 07:57:17;;;;;;;6.40;3.05;;;28.40;79.50;;;;;;4780148;29;20100;-79
2023/07/19 07:59:45;;;;;;;7.63;3.03;;;28.70;80.40;;;;;;4769283;29;20055;-78
2023/07/19 08:02:13;;;;;;;5.55;2.67;;;28.80;79.60;;;;;;4781060;29;20051;-78
2023/07/19 08:04:40;;;;;;;7.85;3.20;;;28.80;79.30;;;;;;4764092;30;20067;-78
2023/07/19 08:07:07;;;;;;;5.38;3.13;;;28.60;79.20;;;;;;4783983;29;20059;-78
2023/07/19 08:09:34;;;;;;;8.63;3.65;;;28.50;80.00;;;;;;4757302;29;20516;-78
2023/07/19 08:12:03;;;;;;;5.60;2.95;;;28.40;80.30;;;;;;4766026;29;20059;-78
2023/07/19 08:14:31;;;;;;;7.00;2.85;;;28.40;79.90;;;;;;4759597;29;20141;-78
2023/07/19 08:16:58;;;;;;;6.35;3.22;;;28.40;80.60;;;;;;4773814;29;20042;-78
2023/07/19 08:19:29;;;;;;;8.05;2.83;;;28.40;80.90;;;;;;4774658;29;20052;-78
2023/07/19 08:22:03;;;;;;;8.45;3.50;;;28.30;80.20;;;;;;4761013;30;20457;-78
2023/07/19 08:24:31;;;;;;;8.45;3.85;;;28.40;81.80;;;;;;4776773;29;20055;-78
2023/07/19 08:26:58;;;;;;;4.53;2.75;;;28.50;81.10;;;;;;4777866;29;20104;-79
2023/07/19 08:29:28;;;;;;;5.45;2.85;;;28.60;80.20;;;;;;4767650;29;20141;-78
2023/07/19 08:31:55;;;;;;;14.30;3.95;;;28.60;79.70;;;;;;4772558;29;20063;-78
2023/07/19 08:34:24;;;;;;;8.40;3.22;;;28.50;79.00;;;;;;4774200;29;20048;-79
2023/07/19 08:36:51;;;;;;;6.28;3.00;;;28.50;78.80;;;;;;4762459;29;20194;-80
2023/07/19 08:39:18;;;;;;;9.35;2.95;;;28.80;79.00;;;;;;4763627;29;20051;-79
2023/07/19 08:41:45;;;;;;;8.70;3.13;;;29.30;78.50;;;;;;4756867;29;20062;-79
2023/07/19 08:44:13;;;;;;;7.88;2.92;;;29.70;77.20;;;;;;4771711;29;20145;-78
2023/07/19 08:46:43;;;;;;;8.38;2.90;;;29.90;76.10;;;;;;4767688;29;20101;-79
2023/07/19 08:49:10;;;;;;;5.82;2.97;;;29.80;75.30;;;;;;4767697;29;23164;-80
2023/07/19 08:51:39;;;;;;;4.50;2.80;;;30.00;75.20;;;;;;4756644;29;20078;-79
2023/07/19 08:54:08;;;;;;;5.50;2.85;;;30.20;75.00;;;;;;4760742;29;20067;-80
2023/07/19 08:56:35;;;;;;;5.57;2.63;;;30.60;74.60;;;;;;4781728;29;20055;-78
2023/07/19 08:59:03;;;;;;;7.60;2.85;;;30.70;74.50;;;;;;4771269;29;20568;-79
2023/07/19 09:01:30;;;;;;;7.25;2.97;;;30.80;73.40;;;;;;4767295;30;20059;-77
2023/07/19 09:03:58;;;;;;;6.30;2.78;;;31.00;73.80;;;;;;4775426;29;20100;-79
2023/07/19 09:06:28;;;;;;;6.10;2.67;;;30.80;73.40;;;;;;4763121;29;20060;-79
2023/07/19 09:08:55;;;;;;;7.25;2.60;;;30.60;75.10;;;;;;4773496;29;20158;-79
2023/07/19 09:11:23;;;;;;;31.75;4.35;;;30.70;73.20;;;;;;4758973;29;20960;-78
2023/07/19 09:13:55;;;;;;;7.60;2.80;;;30.90;72.70;;;;;;4761935;29;20058;-79
2023/07/19 09:16:29;;;;;;;;;;;30.90;72.30;;;;;;4770857;29;20109;-78
2023/07/19 09:19:00;;;;;;;5.43;3.20;;;30.40;71.30;;;;;;4771978;29;19963;-78
2023/07/19 09:21:36;;;;;;;;;;;30.40;72.90;;;;;;4772505;29;20039;-78
2023/07/19 09:24:05;;;;;;;10.55;3.28;;;30.50;72.50;;;;;;4758223;29;19933;-77
2023/07/19 09:26:57;;;;;;;5.15;2.65;;;30.80;72.20;;;;;;4757232;29;20063;-77
2023/07/19 09:29:32;;;;;;;4.00;2.90;;;31.10;69.70;;;;;;4760720;29;20449;-78
2023/07/19 09:32:02;;;;;;;7.18;2.70;;;30.80;68.40;;;;;;4759084;29;20062;-78
2023/07/19 09:34:36;;;;;;;10.02;3.30;;;30.80;70.00;;;;;;4774786;29;20059;-77
2023/07/19 09:37:04;;;;;;;6.90;3.22;;;30.70;70.60;;;;;;4758831;29;20655;-79
2023/07/19 09:39:36;;;;;;;9.23;3.15;;;30.70;70.00;;;;;;4757565;29;20101;-78
2023/07/19 09:42:05;;;;;;;7.90;3.40;;;30.60;70.00;;;;;;4756202;29;20059;-77
2023/07/19 09:44:33;;;;;;;6.10;3.13;;;30.50;70.30;;;;;;4772897;29;20058;-79
2023/07/19 09:47:01;;;;;;;6.47;2.53;;;30.60;71.10;;;;;;4760119;29;20055;-78
2023/07/19 09:49:44;;;;;;;9.60;2.88;;;30.70;71.40;;;;;;4779320;29;20063;-77
2023/07/19 09:52:17;;;;;;;5.75;2.45;;;30.80;67.50;;;;;;4762962;29;20044;-78
2023/07/19 09:54:44;;;;;;;5.50;2.45;;;30.80;68.10;;;;;;4774854;29;20047;-77
2023/07/19 09:57:12;;;;;;;5.80;2.70;;;30.60;67.10;;;;;;4766071;29;20046;-76
2023/07/19 09:59:46;;;;;;;3.83;2.42;;;30.50;65.20;;;;;;4763822;29;20055;-79
2023/07/19 10:02:13;;;;;;;5.53;2.58;;;30.20;64.40;;;;;;4768608;29;20532;-77
2023/07/19 10:04:42;;;;;;;6.22;2.90;;;30.20;65.60;;;;;;4773006;29;20071;-78
2023/07/19 10:07:18;;;;;;;4.68;2.58;;;30.20;65.50;;;;;;4774440;29;20117;-78
2023/07/19 10:09:47;;;;;;;3.42;2.03;;;30.20;66.80;;;;;;4760484;29;20055;-78
2023/07/19 10:12:17;;;;;;;6.15;2.88;;;30.20;66.90;;;;;;4760267;29;20132;-78
2023/07/19 10:14:53;;;;;;;4.00;2.10;;;30.10;66.90;;;;;;4772645;29;20142;-78
2023/07/19 10:17:20;;;;;;;5.13;2.42;;;30.10;65.30;;;;;;4764814;29;20070;-75
2023/07/19 10:20:07;;;;;;;5.47;3.08;;;30.20;66.60;;;;;;4767478;29;20142;-78
2023/07/19 10:22:57;;;;;;;5.00;2.38;;;30.40;68.70;;;;;;4770165;29;20136;-77
2023/07/19 10:25:29;;;;;;;4.05;2.53;;;30.60;65.70;;;;;;4768637;29;20055;-79
2023/07/19 10:28:01;;;;;;;4.82;2.50;;;30.60;66.10;;;;;;4772665;29;20059;-79
2023/07/19 10:30:44;;;;;;;;;;;30.40;65.20;;;;;;4766001;29;20580;-79
2023/07/19 10:33:16;;;;;;;6.93;2.42;;;30.60;66.40;;;;;;4766759;29;19959;-80
2023/07/19 10:35:44;;;;;;;4.13;2.15;;;30.60;64.60;;;;;;4757671;29;20118;-78
2023/07/19 10:38:18;;;;;;;7.25;2.20;;;30.50;64.30;;;;;;4774405;29;20113;-79
2023/07/19 10:40:56;;;;;;;7.13;2.55;;;30.60;66.20;;;;;;4754169;30;20066;-79
2023/07/19 10:43:28;;;;;;;6.25;3.00;;;30.40;65.30;;;;;;4763665;29;20172;-79
2023/07/19 10:46:12;;;;;;;6.30;2.10;;;30.50;65.70;;;;;;4744849;30;20066;-79
2023/07/19 10:48:40;;;;;;;4.72;1.95;;;30.90;65.90;;;;;;4763435;29;20047;-79
2023/07/19 10:51:09;;;;;;;3.30;2.13;;;31.20;65.50;;;;;;4756097;30;20744;-79
2023/07/19 10:53:48;;;;;;;4.20;2.10;;;31.40;65.90;;;;;;4756980;29;20051;-79
2023/07/19 10:56:16;;;;;;;6.57;2.85;;;31.20;64.00;;;;;;4768642;29;20047;-80
2023/07/19 10:58:44;;;;;;;5.20;2.78;;;30.90;63.70;;;;;;4758196;29;20492;-79
2023/07/19 11:01:12;;;;;;;6.90;1.67;;;30.60;61.80;;;;;;4774091;29;20103;-78
2023/07/19 11:03:44;;;;;;;4.55;1.45;;;30.70;60.00;;;;;;4770193;29;20563;-79
2023/07/19 11:06:12;;;;;;;5.35;1.95;;;30.70;58.70;;;;;;4767829;29;20066;-80
2023/07/19 11:08:39;;;;;;;5.10;1.60;;;30.50;58.90;;;;;;4773930;29;20062;-79
2023/07/19 11:11:09;;;;;;;5.97;1.80;;;30.40;59.80;;;;;;4760212;30;20063;-80
2023/07/19 11:13:37;;;;;;;3.22;1.50;;;30.40;58.10;;;;;;4761862;29;20150;-79
2023/07/19 11:16:05;;;;;;;2.85;1.60;;;30.80;59.20;;;;;;4761248;29;20047;-79
2023/07/19 11:18:41;;;;;;;4.82;1.60;;;31.00;57.10;;;;;;4763743;29;20480;-79
2023/07/19 11:21:10;;;;;;;4.78;1.95;;;30.90;56.00;;;;;;4776534;29;20063;-79
2023/07/19 11:23:44;;;;;;;7.43;1.60;;;31.10;57.10;;;;;;4773469;29;20058;-79
2023/07/19 11:26:13;;;;;;;5.63;2.25;;;31.00;57.40;;;;;;4766105;29;20054;-79
2023/07/19 11:28:47;;;;;;;6.72;2.03;;;30.80;59.10;;;;;;4763606;29;20055;-79
2023/07/19 11:31:36;;;;;;;6.63;2.03;;;30.70;59.90;;;;;;4766711;29;20070;-79
2023/07/19 11:34:13;;;;;;;5.85;1.83;;;31.00;59.60;;;;;;4775410;29;20056;-80
2023/07/19 11:36:41;;;;;;;5.10;2.08;;;31.20;59.40;;;;;;4764634;29;20066;-79
2023/07/19 11:39:20;;;;;;;5.45;2.20;;;31.20;57.60;;;;;;4776984;29;20047;-78
2023/07/19 11:41:48;;;;;;;3.45;1.70;;;31.20;58.60;;;;;;4777463;29;21007;-80
2023/07/19 11:44:21;;;;;;;2.55;1.55;;;30.90;57.90;;;;;;4777955;29;20058;-80
2023/07/19 11:46:52;;;;;;;6.47;1.90;;;30.90;57.30;;;;;;4768508;29;20170;-79
2023/07/19 11:49:19;;;;;;;4.68;1.63;;;31.00;58.00;;;;;;4766204;29;20060;-80
2023/07/19 11:51:47;;;;;;;4.10;1.80;;;31.00;58.10;;;;;;4765990;29;20787;-79
2023/07/19 11:54:15;;;;;;;3.72;1.77;;;31.10;57.50;;;;;;4775494;29;20062;-80
2023/07/19 11:56:42;;;;;;;6.15;1.63;;;31.20;57.80;;;;;;4760627;29;20055;-78
2023/07/19 11:59:09;;;;;;;3.88;1.58;;;31.10;57.20;;;;;;4774253;29;20055;-78
2023/07/19 12:01:37;;;;;;;2.95;1.50;;;31.20;57.70;;;;;;4765747;30;20058;-79
2023/07/19 12:04:04;;;;;;;6.75;1.77;;;31.20;56.90;;;;;;4777553;29;20063;-79
2023/07/19 12:06:31;;;;;;;3.65;1.63;;;31.10;57.60;;;;;;4748001;29;20090;-79
2023/07/19 12:08:58;;;;;;;3.95;1.55;;;31.00;58.70;;;;;;4766709;29;20130;-79
2023/07/19 12:11:26;;;;;;;7.38;1.45;;;31.10;57.90;;;;;;4759701;29;20423;-79
2023/07/19 12:13:56;;;;;;;5.18;2.00;;;30.90;56.30;;;;;;4764447;29;20412;-80
2023/07/19 12:16:25;;;;;;;3.53;1.80;;;30.70;56.00;;;;;;4760563;29;20047;-79
2023/07/19 12:18:52;;;;;;;3.10;1.90;;;30.70;59.00;;;;;;4778202;29;20051;-79
2023/07/19 12:21:19;;;;;;;4.28;1.73;;;30.70;59.60;;;;;;4771954;29;20123;-79
2023/07/19 12:23:47;;;;;;;4.45;2.10;;;30.80;60.20;;;;;;4764569;29;20068;-79
2023/07/19 12:26:17;;;;;;;4.35;2.38;;;30.80;59.40;;;;;;4764689;29;20073;-79
2023/07/19 12:28:57;;;;;;;5.22;1.63;;;30.90;58.70;;;;;;4767109;29;20079;-81
2023/07/19 12:31:25;;;;;;;4.95;1.95;;;31.10;58.90;;;;;;4763185;29;20457;-78
2023/07/19 12:33:52;;;;;;;4.68;1.73;;;31.10;57.70;;;;;;4773882;29;20055;-80
2023/07/19 12:36:19;;;;;;;7.63;1.77;;;31.10;58.70;;;;;;4776335;29;20748;-79
2023/07/19 12:38:47;;;;;;;4.20;1.58;;;31.00;59.20;;;;;;4771902;29;20056;-79
2023/07/19 12:41:15;;;;;;;4.20;1.83;;;31.30;59.00;;;;;;4777139;29;20109;-79
2023/07/19 12:43:42;;;;;;;5.35;1.90;;;31.30;56.40;;;;;;4777110;29;21211;-79
2023/07/19 12:46:09;;;;;;;5.45;1.58;;;31.30;56.70;;;;;;4756705;29;20055;-80
2023/07/19 12:48:38;;;;;;;4.60;1.67;;;31.40;57.00;;;;;;4746425;29;20063;-80
2023/07/19 12:51:06;;;;;;;4.50;1.25;;;31.40;57.40;;;;;;4758552;29;20467;-79
2023/07/19 12:53:34;;;;;;;4.43;1.55;;;31.40;54.60;;;;;;4772882;29;20543;-79